Terminal Aerodrome Forecast
Issued by NWS

Home | Current Version | Previous Version | Text Only | Print | Product List | Glossary On
Versions: 1 2 3 4 5 6 7 8 9 10 11 12 13 14 15 16 17 18 19
000
FTUS46 KMTR 281435 AAA
TAFOAK
TAF AMD
KOAK 281435Z 2815/2918 30005KT P6SM OVC007
     FM281700 28008KT P6SM SKC
     FM282100 29014KT P6SM SKC
     FM290300 28009KT P6SM SKC
     FM290700 30006KT P6SM OVC008
     FM291200 26005KT P6SM OVC007=

USA.gov is the U.S. government's official web portal to all federal, state and local government web resources and services.